PWSweather.com
Personal Weather Stations
Station Observations
SEVANL01
SevillaES 41004

SevillaES 41004

Lat: 37.383633, Lon: -5.985787

Elevation: 19.685

Station Type: Davis Vantage Pro2

www.tiempoensevilla.es

High Low Average
Temperature 73.2°F22.9°F 53.2°F11.8°F 63.1°F17.3°F
Dew Point 49.6°F9.8°F 43.7°F6.5°F 46.2°F7.9°F
Winds 10.6 mph -17.1 mph - Calm Calm 6.4 mph 10.3 mph
Wind Gusts 22.0 mph35.4 mph -- 13.2 mph21.2 mph
Humidity 73% 38% 55%
Pressure 30.09 in1019.00 in 30.01 in1016.30 in -
Precipitation 0.00 in0.00 in - -
Hour Temp Dew Point Humidity Winds Wind Gusts Pressure Precip Precip Rate Daily Precip Total
12:00 AM 59.0°F15.0°C 45.6°F7.6°C 61% 6.7 mph E10.8 kmh E 12.0 mph19.3 kmh 30.09 in1019.0 mb 0.00 in0.0 mm 0.00 in0.0 mm 0.00 in0.0 mm
12:20 AM 58.9°F14.9°C 46.3°F7.9°C 63% 7.0 mph E11.3 kmh E 14.0 mph22.5 kmh 30.08 in1018.6 mb 0.00 in0.0 mm 0.00 in0.0 mm 0.00 in0.0 mm
12:40 AM 58.9°F14.9°C 46.7°F8.2°C 64% 6.5 mph E10.5 kmh E 11.0 mph17.7 kmh 30.08 in1018.6 mb 0.00 in0.0 mm 0.00 in0.0 mm 0.00 in0.0 mm
01:00 AM 58.8°F14.9°C 47.1°F8.4°C 65% 7.8 mph E12.6 kmh E 14.0 mph22.5 kmh 30.08 in1018.6 mb 0.00 in0.0 mm 0.00 in0.0 mm 0.00 in0.0 mm
01:20 AM 57.3°F14.1°C 46.4°F8.0°C 67% 5.2 mph ENE8.4 kmh ENE 13.0 mph20.9 kmh 30.07 in1018.3 mb 0.00 in0.0 mm 0.00 in0.0 mm 0.00 in0.0 mm
01:40 AM 57.9°F14.4°C 47.0°F8.3°C 67% 7.5 mph E12.1 kmh E 13.0 mph20.9 kmh 30.07 in1018.3 mb 0.00 in0.0 mm 0.00 in0.0 mm 0.00 in0.0 mm
02:00 AM 58.1°F14.5°C 47.2°F8.4°C 67% 5.5 mph E8.9 kmh E 13.0 mph20.9 kmh 30.06 in1017.9 mb 0.00 in0.0 mm 0.00 in0.0 mm 0.00 in0.0 mm
02:20 AM 57.7°F14.3°C 46.8°F8.2°C 67% 4.5 mph NE7.2 kmh NE 9.0 mph14.5 kmh 30.06 in1017.9 mb 0.00 in0.0 mm 0.00 in0.0 mm 0.00 in0.0 mm
02:40 AM 56.9°F13.8°C 46.1°F7.8°C 67% 4.3 mph NE6.9 kmh NE 10.0 mph16.1 kmh 30.06 in1017.9 mb 0.00 in0.0 mm 0.00 in0.0 mm 0.00 in0.0 mm
03:00 AM 55.7°F13.2°C 45.7°F7.6°C 69% 5.3 mph NE8.5 kmh NE 10.0 mph16.1 kmh 30.06 in1017.9 mb 0.00 in0.0 mm 0.00 in0.0 mm 0.00 in0.0 mm
03:20 AM 55.1°F12.8°C 45.9°F7.7°C 71% 4.5 mph NE7.2 kmh NE 10.0 mph16.1 kmh 30.06 in1017.9 mb 0.00 in0.0 mm 0.00 in0.0 mm 0.00 in0.0 mm
03:40 AM 55.1°F12.8°C 45.9°F7.7°C 71% 6.0 mph ENE9.7 kmh ENE 14.0 mph22.5 kmh 30.05 in1017.6 mb 0.00 in0.0 mm 0.00 in0.0 mm 0.00 in0.0 mm
04:00 AM 55.4°F13.0°C 45.4°F7.4°C 69% 5.9 mph ENE9.5 kmh ENE 14.0 mph22.5 kmh 30.05 in1017.6 mb 0.00 in0.0 mm 0.00 in0.0 mm 0.00 in0.0 mm
04:20 AM 55.1°F12.8°C 45.1°F7.3°C 69% 5.7 mph ENE9.2 kmh ENE 13.0 mph20.9 kmh 30.05 in1017.6 mb 0.00 in0.0 mm 0.00 in0.0 mm 0.00 in0.0 mm
04:40 AM 54.7°F12.6°C 45.1°F7.3°C 70% 5.8 mph ENE9.3 kmh ENE 12.0 mph19.3 kmh 30.05 in1017.6 mb 0.00 in0.0 mm 0.00 in0.0 mm 0.00 in0.0 mm
05:00 AM 54.5°F12.5°C 45.3°F7.4°C 71% 5.0 mph NE8.0 kmh NE 10.0 mph16.1 kmh 30.05 in1017.6 mb 0.00 in0.0 mm 0.00 in0.0 mm 0.00 in0.0 mm
05:20 AM 54.5°F12.5°C 45.7°F7.6°C 72% 5.3 mph NE8.5 kmh NE 13.0 mph20.9 kmh 30.05 in1017.6 mb 0.00 in0.0 mm 0.00 in0.0 mm 0.00 in0.0 mm
05:40 AM 54.3°F12.4°C 45.8°F7.7°C 73% 5.4 mph NE8.7 kmh NE 11.0 mph17.7 kmh 30.05 in1017.6 mb 0.00 in0.0 mm 0.00 in0.0 mm 0.00 in0.0 mm
06:00 AM 54.7°F12.6°C 46.2°F7.9°C 73% 6.2 mph ENE10.0 kmh ENE 11.0 mph17.7 kmh 30.05 in1017.6 mb 0.00 in0.0 mm 0.00 in0.0 mm 0.00 in0.0 mm
06:20 AM 55.0°F12.8°C 46.1°F7.8°C 72% 6.1 mph ENE9.8 kmh ENE 12.0 mph19.3 kmh 30.05 in1017.6 mb 0.00 in0.0 mm 0.00 in0.0 mm 0.00 in0.0 mm
06:40 AM 54.8°F12.7°C 45.2°F7.3°C 70% 4.8 mph NE7.7 kmh NE 12.0 mph19.3 kmh 30.05 in1017.6 mb 0.00 in0.0 mm 0.00 in0.0 mm 0.00 in0.0 mm
07:00 AM 54.2°F12.3°C 44.6°F7.0°C 70% 5.4 mph NE8.7 kmh NE 12.0 mph19.3 kmh 30.06 in1017.9 mb 0.00 in0.0 mm 0.00 in0.0 mm 0.00 in0.0 mm
07:20 AM 53.6°F12.0°C 44.0°F6.7°C 70% 5.6 mph NE9.0 kmh NE 11.0 mph17.7 kmh 30.06 in1017.9 mb 0.00 in0.0 mm 0.00 in0.0 mm 0.00 in0.0 mm
07:40 AM 53.2°F11.8°C 43.7°F6.5°C 70% 6.0 mph ENE9.7 kmh ENE 11.0 mph17.7 kmh 30.06 in1017.9 mb 0.00 in0.0 mm 0.00 in0.0 mm 0.00 in0.0 mm
08:00 AM 53.2°F11.8°C 43.7°F6.5°C 70% 5.6 mph ENE9.0 kmh ENE 12.0 mph19.3 kmh 30.07 in1018.3 mb 0.00 in0.0 mm 0.00 in0.0 mm 0.00 in0.0 mm
08:20 AM 53.3°F11.8°C 43.8°F6.6°C 70% 5.6 mph NE9.0 kmh NE 11.0 mph17.7 kmh 30.07 in1018.3 mb 0.00 in0.0 mm 0.00 in0.0 mm 0.00 in0.0 mm
08:40 AM 53.8°F12.1°C 43.9°F6.6°C 69% 5.0 mph NE8.0 kmh NE 13.0 mph20.9 kmh 30.07 in1018.3 mb 0.00 in0.0 mm 0.00 in0.0 mm 0.00 in0.0 mm
09:00 AM 54.3°F12.4°C 44.3°F6.8°C 69% 5.5 mph NE8.9 kmh NE 13.0 mph20.9 kmh 30.07 in1018.3 mb 0.00 in0.0 mm 0.00 in0.0 mm 0.00 in0.0 mm
09:20 AM 55.7°F13.2°C 44.9°F7.2°C 67% 5.9 mph NE9.5 kmh NE 12.0 mph19.3 kmh 30.08 in1018.6 mb 0.00 in0.0 mm 0.00 in0.0 mm 0.00 in0.0 mm
09:40 AM 57.2°F14.0°C 45.5°F7.5°C 65% 6.0 mph NE9.7 kmh NE 14.0 mph22.5 kmh 30.08 in1018.6 mb 0.00 in0.0 mm 0.00 in0.0 mm 0.00 in0.0 mm
10:00 AM 59.1°F15.1°C 45.7°F7.6°C 61% 6.0 mph ENE9.7 kmh ENE 14.0 mph22.5 kmh 30.08 in1018.6 mb 0.00 in0.0 mm 0.00 in0.0 mm 0.00 in0.0 mm
10:20 AM 61.1°F16.2°C 46.7°F8.2°C 59% 7.5 mph NE12.1 kmh NE 14.0 mph22.5 kmh 30.08 in1018.6 mb 0.00 in0.0 mm 0.00 in0.0 mm 0.00 in0.0 mm
10:40 AM 62.3°F16.8°C 45.9°F7.7°C 55% 9.2 mph E14.8 kmh E 17.0 mph27.4 kmh 30.09 in1019.0 mb 0.00 in0.0 mm 0.00 in0.0 mm 0.00 in0.0 mm
11:00 AM 63.6°F17.6°C 45.6°F7.6°C 52% 6.7 mph E10.8 kmh E 18.0 mph29.0 kmh 30.09 in1019.0 mb 0.00 in0.0 mm 0.00 in0.0 mm 0.00 in0.0 mm
11:20 AM 64.9°F18.3°C 45.8°F7.7°C 50% 8.4 mph ENE13.5 kmh ENE 17.0 mph27.4 kmh 30.08 in1018.6 mb 0.00 in0.0 mm 0.00 in0.0 mm 0.00 in0.0 mm
11:40 AM 66.3°F19.1°C 46.6°F8.1°C 49% 8.3 mph NE13.4 kmh NE 17.0 mph27.4 kmh 30.08 in1018.6 mb 0.00 in0.0 mm 0.00 in0.0 mm 0.00 in0.0 mm
12:00 PM 68.2°F20.1°C 48.3°F9.1°C 49% 7.8 mph E12.6 kmh E 16.0 mph25.7 kmh 30.08 in1018.6 mb 0.00 in0.0 mm 0.00 in0.0 mm 0.00 in0.0 mm
12:20 PM 68.6°F20.3°C 48.7°F9.3°C 49% 8.2 mph E13.2 kmh E 20.0 mph32.2 kmh 30.07 in1018.3 mb 0.00 in0.0 mm 0.00 in0.0 mm 0.00 in0.0 mm
12:40 PM 69.9°F21.1°C 48.7°F9.3°C 47% 7.4 mph E11.9 kmh E 17.0 mph27.4 kmh 30.07 in1018.3 mb 0.00 in0.0 mm 0.00 in0.0 mm 0.00 in0.0 mm
01:00 PM 70.8°F21.6°C 49.6°F9.8°C 47% 7.9 mph E12.7 kmh E 16.0 mph25.7 kmh 30.05 in1017.6 mb 0.00 in0.0 mm 0.00 in0.0 mm 0.00 in0.0 mm
01:20 PM 70.9°F21.6°C 48.5°F9.2°C 45% 8.9 mph E14.3 kmh E 17.0 mph27.4 kmh 30.05 in1017.6 mb 0.00 in0.0 mm 0.00 in0.0 mm 0.00 in0.0 mm
01:40 PM 71.1°F21.7°C 48.7°F9.3°C 45% 9.3 mph ESE15.0 kmh ESE 18.0 mph29.0 kmh 30.05 in1017.6 mb 0.00 in0.0 mm 0.00 in0.0 mm 0.00 in0.0 mm
02:00 PM 71.0°F21.7°C 48.6°F9.2°C 45% 8.3 mph ESE13.4 kmh ESE 12.0 mph19.3 kmh 30.04 in1017.3 mb 0.00 in0.0 mm 0.00 in0.0 mm 0.00 in0.0 mm
02:20 PM 71.6°F22.0°C 47.9°F8.8°C 43% 6.8 mph SE10.9 kmh SE 18.0 mph29.0 kmh 30.03 in1016.9 mb 0.00 in0.0 mm 0.00 in0.0 mm 0.00 in0.0 mm
02:40 PM 72.2°F22.3°C 47.8°F8.8°C 42% 9.1 mph E14.6 kmh E 19.0 mph30.6 kmh 30.03 in1016.9 mb 0.00 in0.0 mm 0.00 in0.0 mm 0.00 in0.0 mm
03:00 PM 72.4°F22.4°C 48.0°F8.9°C 42% 8.9 mph ESE14.3 kmh ESE 18.0 mph29.0 kmh 30.02 in1016.6 mb 0.00 in0.0 mm 0.00 in0.0 mm 0.00 in0.0 mm
03:20 PM 72.6°F22.6°C 47.5°F8.6°C 41% 10.6 mph ESE17.1 kmh ESE 21.0 mph33.8 kmh 30.02 in1016.6 mb 0.00 in0.0 mm 0.00 in0.0 mm 0.00 in0.0 mm
03:40 PM 72.6°F22.6°C 46.2°F7.9°C 39% 10.5 mph ESE16.9 kmh ESE 22.0 mph35.4 kmh 30.02 in1016.6 mb 0.00 in0.0 mm 0.00 in0.0 mm 0.00 in0.0 mm
04:00 PM 73.2°F22.9°C 46.1°F7.8°C 38% 9.1 mph E14.6 kmh E 17.0 mph27.4 kmh 30.02 in1016.6 mb 0.00 in0.0 mm 0.00 in0.0 mm 0.00 in0.0 mm
04:20 PM 72.8°F22.7°C 46.4°F8.0°C 39% 9.8 mph ESE15.8 kmh ESE 17.0 mph27.4 kmh 30.01 in1016.3 mb 0.00 in0.0 mm 0.00 in0.0 mm 0.00 in0.0 mm
04:40 PM 73.1°F22.8°C 46.0°F7.8°C 38% 8.0 mph ESE12.9 kmh ESE 16.0 mph25.7 kmh 30.01 in1016.3 mb 0.00 in0.0 mm 0.00 in0.0 mm 0.00 in0.0 mm
05:00 PM 72.7°F22.6°C 46.3°F7.9°C 39% 8.3 mph ESE13.4 kmh ESE 19.0 mph30.6 kmh 30.02 in1016.6 mb 0.00 in0.0 mm 0.00 in0.0 mm 0.00 in0.0 mm
05:20 PM 73.0°F22.8°C 45.9°F7.7°C 38% 8.2 mph E13.2 kmh E 15.0 mph24.1 kmh 30.01 in1016.3 mb 0.00 in0.0 mm 0.00 in0.0 mm 0.00 in0.0 mm
05:40 PM 72.4°F22.4°C 46.0°F7.8°C 39% 9.2 mph ESE14.8 kmh ESE 20.0 mph32.2 kmh 30.02 in1016.6 mb 0.00 in0.0 mm 0.00 in0.0 mm 0.00 in0.0 mm
06:00 PM 72.3°F22.4°C 45.9°F7.7°C 39% 8.5 mph ESE13.7 kmh ESE 19.0 mph30.6 kmh 30.02 in1016.6 mb 0.00 in0.0 mm 0.00 in0.0 mm 0.00 in0.0 mm
06:20 PM 71.6°F22.0°C 46.0°F7.8°C 40% 10.0 mph E16.1 kmh E 18.0 mph29.0 kmh 30.03 in1016.9 mb 0.00 in0.0 mm 0.00 in0.0 mm 0.00 in0.0 mm
06:40 PM 71.0°F21.7°C 46.1°F7.8°C 41% 10.0 mph E16.1 kmh E 17.0 mph27.4 kmh 30.03 in1016.9 mb 0.00 in0.0 mm 0.00 in0.0 mm 0.00 in0.0 mm
07:00 PM 70.7°F21.5°C 46.5°F8.1°C 42% 9.0 mph E14.5 kmh E 14.0 mph22.5 kmh 30.03 in1016.9 mb 0.00 in0.0 mm 0.00 in0.0 mm 0.00 in0.0 mm
07:20 PM 69.9°F21.1°C 45.8°F7.7°C 42% 7.5 mph SE12.1 kmh SE 16.0 mph25.7 kmh 30.04 in1017.3 mb 0.00 in0.0 mm 0.00 in0.0 mm 0.00 in0.0 mm
07:40 PM 69.2°F20.7°C 45.7°F7.6°C 43% 6.2 mph ESE10.0 kmh ESE 15.0 mph24.1 kmh 30.05 in1017.6 mb 0.00 in0.0 mm 0.00 in0.0 mm 0.00 in0.0 mm
08:00 PM 68.6°F20.3°C 45.8°F7.7°C 44% 6.5 mph SE10.5 kmh SE 16.0 mph25.7 kmh 30.05 in1017.6 mb 0.00 in0.0 mm 0.00 in0.0 mm 0.00 in0.0 mm
08:20 PM 67.7°F19.8°C 46.2°F7.9°C 46% 5.3 mph ESE8.5 kmh ESE 12.0 mph19.3 kmh 30.06 in1017.9 mb 0.00 in0.0 mm 0.00 in0.0 mm 0.00 in0.0 mm
08:40 PM 67.1°F19.5°C 46.2°F7.9°C 47% 5.4 mph E8.7 kmh E 11.0 mph17.7 kmh 30.07 in1018.3 mb 0.00 in0.0 mm 0.00 in0.0 mm 0.00 in0.0 mm
09:00 PM 66.6°F19.2°C 45.7°F7.6°C 47% 3.9 mph ESE6.3 kmh ESE 9.0 mph14.5 kmh 30.08 in1018.6 mb 0.00 in0.0 mm 0.00 in0.0 mm 0.00 in0.0 mm
09:20 PM 65.9°F18.8°C 45.6°F7.6°C 48% 2.9 mph SSE4.7 kmh SSE 7.0 mph11.3 kmh 30.09 in1019.0 mb 0.00 in0.0 mm 0.00 in0.0 mm 0.00 in0.0 mm
09:40 PM 65.2°F18.4°C 46.1°F7.8°C 50% 1.6 mph SE2.6 kmh SE 3.0 mph4.8 kmh 30.09 in1019.0 mb 0.00 in0.0 mm 0.00 in0.0 mm 0.00 in0.0 mm
10:00 PM 64.8°F18.2°C 45.7°F7.6°C 50% 2.0 mph ESE3.2 kmh ESE 3.0 mph4.8 kmh 30.09 in1019.0 mb 0.00 in0.0 mm 0.00 in0.0 mm 0.00 in0.0 mm
10:20 PM 64.4°F18.0°C 45.9°F7.7°C 51% 1.0 mph ESE1.6 kmh ESE 3.0 mph4.8 kmh 30.09 in1019.0 mb 0.00 in0.0 mm 0.00 in0.0 mm 0.00 in0.0 mm
10:40 PM 64.0°F17.8°C 46.0°F7.8°C 52% 0.4 mph 0.6 kmh -- 30.09 in1019.0 mb 0.00 in0.0 mm 0.00 in0.0 mm 0.00 in0.0 mm
11:00 PM 63.7°F17.6°C 45.7°F7.6°C 52% Calm Calm 2.0 mph3.2 kmh 30.08 in1018.6 mb 0.00 in0.0 mm 0.00 in0.0 mm 0.00 in0.0 mm
11:20 PM 63.6°F17.6°C 45.6°F7.6°C 52% 1.0 mph ESE1.6 kmh ESE 4.0 mph6.4 kmh 30.08 in1018.6 mb 0.00 in0.0 mm 0.00 in0.0 mm 0.00 in0.0 mm
11:40 PM 62.0°F16.7°C 46.1°F7.8°C 56% 2.0 mph N3.2 kmh N 5.0 mph8.0 kmh 30.08 in1018.6 mb 0.00 in0.0 mm 0.00 in0.0 mm 0.00 in0.0 mm